Time;durP1;ratioP1;P1;durP2;ratioP2;P2;SDS_P1;SDS_P2;PMS_P1;PMS_P2;Temp;Humidity;BMP_temperature;BMP_pressure;BME280_temperature;BME280_humidity;BME280_pressure;Samples;Min_cycle;Max_cycle;Signal;HPM_P1;HPM_P2
2022/11/01 00:02:46;;;;;;;82.53;47.93;;;9.80;99.90;;;;;;10417452;28;20040;-77
2022/11/01 00:07:46;;;;;;;115.87;56.57;;;9.80;99.90;;;;;;10409710;28;20034;-77
2022/11/01 00:12:47;;;;;;;118.77;59.37;;;9.70;99.90;;;;;;10406689;28;20393;-77
2022/11/01 00:17:48;;;;;;;137.23;68.57;;;9.70;99.90;;;;;;10407752;28;20033;-77
2022/11/01 00:22:48;;;;;;;109.97;59.40;;;9.70;99.90;;;;;;10422328;28;20040;-77
2022/11/01 00:27:49;;;;;;;123.03;63.50;;;9.70;99.90;;;;;;10416613;28;20041;-77
2022/11/01 00:32:49;;;;;;;138.60;66.57;;;9.60;99.90;;;;;;10410222;28;20036;-78
2022/11/01 00:37:50;;;;;;;153.57;72.90;;;9.60;99.90;;;;;;10404157;28;20440;-77
2022/11/01 00:42:50;;;;;;;182.98;75.15;;;9.60;99.90;;;;;;10405590;28;20045;-77
2022/11/01 00:47:51;;;;;;;153.70;68.27;;;9.60;99.90;;;;;;10393800;28;20095;-77
2022/11/01 00:52:51;;;;;;;176.37;80.87;;;9.60;99.90;;;;;;10395116;28;20033;-77
2022/11/01 00:57:52;;;;;;;160.90;80.47;;;9.60;99.90;;;;;;10399797;28;20396;-78
2022/11/01 01:02:53;;;;;;;175.90;82.13;;;9.70;99.90;;;;;;10400902;28;20033;-77
2022/11/01 01:07:53;;;;;;;109.40;58.83;;;9.80;99.90;;;;;;10404488;28;20400;-77
2022/11/01 01:12:54;;;;;;;103.37;57.63;;;9.80;99.90;;;;;;10404452;28;20037;-77
2022/11/01 01:17:54;;;;;;;129.07;60.27;;;9.80;99.90;;;;;;10394831;28;20529;-77
2022/11/01 01:22:55;;;;;;;97.17;50.90;;;9.80;99.90;;;;;;10398144;28;20033;-77
2022/11/01 01:27:56;;;;;;;112.80;56.03;;;9.80;99.90;;;;;;10393752;28;20531;-77
2022/11/01 01:32:56;;;;;;;122.43;64.03;;;9.60;99.90;;;;;;10401308;28;20104;-80
2022/11/01 01:37:57;;;;;;;91.57;50.77;;;9.40;99.90;;;;;;10401616;28;20044;-77
2022/11/01 01:42:57;;;;;;;95.53;51.27;;;9.40;99.90;;;;;;10398533;28;20451;-77
2022/11/01 01:48:25;;;;;;;73.33;43.90;;;9.40;99.90;;;;;;10399975;28;20048;-79
2022/11/01 01:53:29;;;;;;;95.53;50.40;;;9.20;99.90;;;;;;10393103;28;20054;-79
2022/11/01 01:58:36;;;;;;;89.27;49.03;;;9.10;99.90;;;;;;10402883;28;20054;-80
2022/11/01 02:03:38;;;;;;;83.50;47.17;;;8.90;99.90;;;;;;10396715;28;20030;-78
2022/11/01 02:08:42;;;;;;;158.10;68.00;;;8.90;99.90;;;;;;10400639;28;20080;-79
2022/11/01 02:13:43;;;;;;;232.23;74.03;;;8.90;99.90;;;;;;10402431;28;20029;-78
2022/11/01 02:19:14;;;;;;;164.73;67.07;;;8.90;99.90;;;;;;10408451;28;20501;-77
2022/11/01 02:24:46;;;;;;;401.63;104.63;;;8.90;99.90;;;;;;10401802;28;20124;-77
2022/11/01 02:29:46;;;;;;;114.60;59.80;;;8.90;99.90;;;;;;10404462;28;20033;-77
2022/11/01 02:35:01;;;;;;;307.63;86.77;;;9.00;99.90;;;;;;10408044;28;20034;-79
2022/11/01 02:40:08;;;;;;;130.83;66.03;;;9.10;99.90;;;;;;10403532;28;20041;-77
2022/11/01 02:45:27;;;;;;;137.73;65.63;;;9.20;99.90;;;;;;10404958;28;20048;-80
2022/11/01 02:50:46;;;;;;;134.10;65.20;;;9.40;99.90;;;;;;10400715;28;20049;-77
2022/11/01 02:55:46;;;;;;;114.13;56.77;;;9.40;99.90;;;;;;10389121;28;20120;-78
2022/11/01 03:00:47;;;;;;;158.00;74.60;;;9.40;99.90;;;;;;10402438;28;20033;-77
2022/11/01 03:05:59;;;;;;;242.40;81.80;;;9.40;99.90;;;;;;10407652;28;20385;-80
2022/11/01 03:11:15;;;;;;;150.33;73.63;;;9.40;99.90;;;;;;10404755;28;20017;-77
2022/11/01 03:16:46;;;;;;;144.73;68.47;;;9.30;99.90;;;;;;10400390;28;20049;-78
2022/11/01 03:21:58;;;;;;;166.50;74.17;;;9.30;99.90;;;;;;10404772;28;20041;-77
2022/11/01 03:27:12;;;;;;;130.07;61.87;;;9.30;99.90;;;;;;10405139;28;20045;-80
2022/11/01 03:32:15;;;;;;;100.47;41.93;;;9.20;99.90;;;;;;10401088;28;20029;-79
2022/11/01 03:37:16;;;;;;;92.53;42.03;;;9.20;99.90;;;;;;10408329;28;20025;-81
2022/11/01 03:42:20;;;;;;;106.63;41.00;;;9.20;99.90;;;;;;10406217;28;20030;-77
2022/11/01 03:47:21;;;;;;;152.30;49.30;;;9.20;99.90;;;;;;10403986;28;20041;-79
2022/11/01 03:52:21;;;;;;;158.33;47.23;;;9.10;99.90;;;;;;10404327;28;20477;-78
2022/11/01 03:57:22;;;;;;;193.20;50.97;;;9.00;99.90;;;;;;10392754;28;20058;-79
2022/11/01 04:02:23;;;;;;;140.63;45.00;;;9.10;99.90;;;;;;10400249;28;20041;-77
2022/11/01 04:07:23;;;;;;;208.20;49.53;;;9.10;99.90;;;;;;10402035;28;20045;-77
2022/11/01 04:12:24;;;;;;;151.43;41.60;;;9.20;99.90;;;;;;10390701;28;20055;-77
2022/11/01 04:22:43;;;;;;;151.90;43.20;;;9.30;99.90;;;;;;10399404;28;20057;-78
2022/11/01 04:27:44;;;;;;;212.40;53.77;;;9.40;99.90;;;;;;10401089;28;20041;-76
2022/11/01 04:32:44;;;;;;;150.67;44.03;;;9.50;99.90;;;;;;10387948;28;20409;-77
2022/11/01 04:37:45;;;;;;;149.10;47.27;;;9.50;99.90;;;;;;10392597;28;20026;-79
2022/11/01 04:42:46;;;;;;;144.47;49.37;;;9.50;99.90;;;;;;10398294;28;20029;-77
2022/11/01 04:47:52;;;;;;;148.73;58.37;;;9.50;99.90;;;;;;10398019;28;20060;-76
2022/11/01 04:52:52;;;;;;;155.83;64.60;;;9.50;99.90;;;;;;10396680;28;20750;-79
2022/11/01 04:57:53;;;;;;;123.30;49.37;;;9.50;99.90;;;;;;10399122;28;20053;-79
2022/11/01 05:03:01;;;;;;;145.13;49.03;;;9.50;99.90;;;;;;10399835;28;20469;-78
2022/11/01 05:08:06;;;;;;;107.03;44.67;;;9.60;99.90;;;;;;10399755;28;20176;-77
2022/11/01 05:13:08;;;;;;;134.10;43.55;;;9.70;99.90;;;;;;10401748;28;20033;-78
2022/11/01 05:18:09;;;;;;;123.90;49.13;;;9.70;99.90;;;;;;10400905;28;20025;-77
2022/11/01 05:23:09;;;;;;;91.57;37.67;;;9.70;99.90;;;;;;10388488;28;20034;-77
2022/11/01 05:28:12;;;;;;;100.07;38.88;;;9.80;99.90;;;;;;10395961;28;20041;-77
2022/11/01 05:33:13;;;;;;;112.47;40.67;;;9.90;99.90;;;;;;10391720;28;20026;-77
2022/11/01 05:38:13;;;;;;;82.83;33.37;;;9.90;99.90;;;;;;10399860;28;20041;-79
2022/11/01 05:43:14;;;;;;;75.40;34.70;;;9.90;99.90;;;;;;10389170;28;20509;-77
2022/11/01 05:48:14;;;;;;;69.77;31.97;;;10.00;99.90;;;;;;10403404;28;20028;-79
2022/11/01 05:53:15;;;;;;;70.03;30.85;;;10.00;99.90;;;;;;10404533;28;20036;-78
2022/11/01 05:58:16;;;;;;;59.50;28.87;;;10.10;99.90;;;;;;10395619;28;20054;-77
2022/11/01 06:03:16;;;;;;;51.10;25.97;;;10.10;99.90;;;;;;10406147;28;20021;-77
2022/11/01 06:08:17;;;;;;;54.87;27.77;;;10.20;99.90;;;;;;10404156;28;20029;-78
2022/11/01 06:13:18;;;;;;;53.53;27.00;;;10.20;99.90;;;;;;10398203;28;20075;-77
2022/11/01 06:18:18;;;;;;;48.78;24.88;;;10.30;99.90;;;;;;10410899;28;20033;-78
2022/11/01 06:23:19;;;;;;;49.60;24.35;;;10.40;99.90;;;;;;10408541;28;20112;-77
2022/11/01 06:28:19;;;;;;;49.77;26.60;;;10.50;99.90;;;;;;10394416;28;20512;-77
2022/11/01 06:33:20;;;;;;;48.60;24.40;;;10.60;99.90;;;;;;10410134;28;20022;-77
2022/11/01 06:38:20;;;;;;;41.97;22.10;;;10.60;99.90;;;;;;10410329;28;20025;-77
2022/11/01 06:43:21;;;;;;;43.42;22.38;;;10.70;99.90;;;;;;10410913;28;20033;-78
2022/11/01 06:48:22;;;;;;;35.33;20.13;;;10.80;99.90;;;;;;10410441;28;20040;-79
2022/11/01 06:53:23;;;;;;;36.97;19.98;;;10.80;99.90;;;;;;10410534;28;20025;-77
2022/11/01 06:58:24;;;;;;;33.50;18.02;;;10.90;99.90;;;;;;10410530;28;20456;-77
2022/11/01 07:03:25;;;;;;;32.30;18.23;;;10.90;99.90;;;;;;10395048;28;20061;-81
2022/11/01 07:08:25;;;;;;;28.60;17.00;;;10.90;99.90;;;;;;10400446;28;20032;-80
2022/11/01 07:13:27;;;;;;;33.13;16.35;;;10.80;99.90;;;;;;10407428;28;20469;-78
2022/11/01 07:18:29;;;;;;;32.70;17.90;;;10.80;99.90;;;;;;10406410;28;20025;-79
2022/11/01 07:23:30;;;;;;;34.10;17.33;;;10.90;99.90;;;;;;10403850;28;20108;-83
2022/11/01 07:28:30;;;;;;;33.65;15.90;;;11.10;99.90;;;;;;10402973;28;20033;-81
2022/11/01 07:33:31;;;;;;;28.20;15.98;;;11.20;99.90;;;;;;10401272;28;20056;-79
2022/11/01 07:38:32;;;;;;;28.73;15.95;;;11.30;99.90;;;;;;10398155;28;20103;-82
2022/11/01 07:43:34;;;;;;;35.42;18.02;;;11.30;99.90;;;;;;10395856;28;20041;-79
2022/11/01 07:48:35;;;;;;;27.02;15.82;;;11.30;99.90;;;;;;10393441;28;20808;-78
2022/11/01 07:53:36;;;;;;;32.65;16.52;;;11.40;99.90;;;;;;10403515;28;20030;-81
2022/11/01 07:58:36;;;;;;;29.40;15.98;;;11.60;99.90;;;;;;10405436;28;20053;-80
2022/11/01 08:03:37;;;;;;;29.02;16.40;;;11.70;99.90;;;;;;10397887;28;20034;-78
2022/11/01 08:08:38;;;;;;;23.98;14.02;;;11.90;99.90;;;;;;10399300;28;20025;-80
2022/11/01 08:13:39;;;;;;;24.75;12.80;;;12.10;99.90;;;;;;10397500;28;20025;-79
2022/11/01 08:18:39;;;;;;;22.15;11.48;;;12.30;99.90;;;;;;10404945;28;20047;-79
2022/11/01 08:23:41;;;;;;;20.60;11.20;;;12.60;99.90;;;;;;10403060;28;20033;-78
2022/11/01 08:28:42;;;;;;;24.10;13.38;;;12.80;99.90;;;;;;10400862;28;20436;-78
2022/11/01 08:33:42;;;;;;;35.17;20.55;;;12.90;99.90;;;;;;10402523;28;20079;-78
2022/11/01 08:38:43;;;;;;;27.13;16.42;;;13.00;99.90;;;;;;10401997;28;20420;-79
2022/11/01 08:43:44;;;;;;;21.33;13.75;;;13.10;99.90;;;;;;10397042;28;20025;-78
2022/11/01 08:48:46;;;;;;;22.05;13.40;;;13.10;99.90;;;;;;10401595;28;20038;-78
2022/11/01 08:53:47;;;;;;;23.33;14.48;;;13.10;99.90;;;;;;10398811;28;20017;-81
2022/11/01 08:58:48;;;;;;;23.15;12.43;;;13.50;99.90;;;;;;10401077;28;20076;-78
2022/11/01 09:03:49;;;;;;;19.50;12.50;;;13.70;99.90;;;;;;10400096;28;20049;-80
2022/11/01 09:08:49;;;;;;;18.90;12.70;;;14.20;99.90;;;;;;10385214;28;20043;-79
2022/11/01 09:13:54;;;;;;;19.88;12.18;;;14.60;99.90;;;;;;10385373;28;20032;-77
2022/11/01 09:18:56;;;;;;;19.42;12.63;;;15.10;99.90;;;;;;10391659;28;20774;-79
2022/11/01 09:23:57;;;;;;;18.67;11.20;;;15.10;99.90;;;;;;10418938;23;20057;-77
2022/11/01 09:28:58;;;;;;;17.30;10.25;;;15.00;99.90;;;;;;10391669;28;20017;-79
2022/11/01 09:33:59;;;;;;;15.85;9.60;;;14.60;99.90;;;;;;10382964;28;20449;-79
2022/11/01 09:39:00;;;;;;;21.33;10.63;;;14.20;99.90;;;;;;10393932;28;20109;-78
2022/11/01 09:44:03;;;;;;;22.52;10.73;;;14.00;99.90;;;;;;10383386;28;20038;-78
2022/11/01 09:49:05;;;;;;;18.25;10.48;;;13.70;99.90;;;;;;10385954;28;20049;-80
2022/11/01 09:54:09;;;;;;;17.67;10.65;;;13.60;99.90;;;;;;10404631;28;20033;-78
2022/11/01 09:59:54;;;;;;;22.33;11.43;;;13.40;99.90;;;;;;10391741;28;20031;-78
2022/11/01 10:05:22;;;;;;;23.48;12.73;;;13.30;99.90;;;;;;10379678;28;20085;-77
2022/11/01 10:10:51;;;;;;;19.27;12.85;;;13.30;99.90;;;;;;10386188;28;20036;-82
2022/11/01 10:16:29;;;;;;;21.42;12.63;;;13.40;99.90;;;;;;10384295;28;20017;-78
2022/11/01 10:21:41;;;;;;;26.83;15.90;;;13.60;99.90;;;;;;10399051;28;20060;-77
2022/11/01 10:26:44;;;;;;;63.28;39.85;;;13.70;99.90;;;;;;10381861;28;20072;-79
2022/11/01 10:31:48;;;;;;;25.48;16.50;;;14.40;99.90;;;;;;10385819;28;20041;-78
2022/11/01 10:36:51;;;;;;;29.80;18.70;;;14.60;99.90;;;;;;10391681;28;20116;-76
2022/11/01 10:41:52;;;;;;;30.58;18.33;;;14.70;99.90;;;;;;10402051;28;20035;-76
2022/11/01 10:46:55;;;;;;;21.23;13.18;;;14.70;99.90;;;;;;10391977;28;20033;-77
2022/11/01 10:52:07;;;;;;;34.45;21.65;;;14.90;99.90;;;;;;10399088;28;20025;-77
2022/11/01 10:57:19;;;;;;;42.63;26.20;;;15.00;99.90;;;;;;10401649;28;20105;-78
2022/11/01 11:02:32;;;;;;;41.05;26.02;;;15.10;99.90;;;;;;10394828;28;20100;-79
2022/11/01 11:07:33;;;;;;;33.08;21.50;;;15.10;99.90;;;;;;10404810;28;20041;-77
2022/11/01 11:12:35;;;;;;;22.35;15.75;;;15.10;99.90;;;;;;10402390;28;20696;-78
2022/11/01 11:17:44;;;;;;;27.85;18.55;;;15.10;99.90;;;;;;10403882;28;20095;-80
2022/11/01 11:22:45;;;;;;;19.10;11.95;;;15.30;99.90;;;;;;10397575;28;20053;-77
2022/11/01 11:27:51;;;;;;;28.77;16.63;;;15.60;99.90;;;;;;10404171;28;20440;-77
2022/11/01 11:32:52;;;;;;;26.98;16.52;;;15.80;99.90;;;;;;10407895;28;20088;-79
2022/11/01 11:37:58;;;;;;;23.42;14.45;;;15.80;99.90;;;;;;10401567;28;20021;-80
2022/11/01 11:43:32;;;;;;;22.55;13.25;;;15.70;99.90;;;;;;10401115;28;20040;-77
2022/11/01 11:48:44;;;;;;;24.75;14.45;;;15.50;99.90;;;;;;10397767;28;20052;-77
2022/11/01 11:54:12;;;;;;;20.98;13.80;;;15.50;99.90;;;;;;10397315;28;20033;-78
2022/11/01 11:59:24;;;;;;;18.83;10.57;;;15.60;99.90;;;;;;10394841;28;20033;-77
2022/11/01 12:04:38;;;;;;;17.48;11.60;;;15.90;99.90;;;;;;10403085;28;20034;-78
2022/11/01 12:09:46;;;;;;;19.02;12.27;;;16.00;99.90;;;;;;10405437;28;20075;-79
2022/11/01 12:14:47;;;;;;;22.98;14.63;;;15.80;99.90;;;;;;10395661;28;20033;-80
2022/11/01 12:19:48;;;;;;;20.75;12.05;;;15.60;99.90;;;;;;10398679;28;20511;-78
2022/11/01 12:24:50;;;;;;;21.63;12.00;;;15.70;99.90;;;;;;10398371;28;20072;-77
2022/11/01 12:29:59;;;;;;;21.88;12.18;;;15.70;99.90;;;;;;10400578;28;20119;-80
2022/11/01 12:35:05;;;;;;;20.65;12.65;;;15.60;99.90;;;;;;10401634;28;20029;-77
2022/11/01 12:40:20;;;;;;;27.42;13.00;;;15.50;99.90;;;;;;10403264;28;20026;-77
2022/11/01 12:45:41;;;;;;;23.85;12.68;;;15.20;99.90;;;;;;10390583;28;20041;-77
2022/11/01 12:51:03;;;;;;;22.88;12.77;;;14.90;99.90;;;;;;10403791;28;20057;-77
2022/11/01 12:56:04;;;;;;;24.27;12.77;;;14.70;99.90;;;;;;10400730;28;20036;-77
2022/11/01 13:01:16;;;;;;;20.15;11.18;;;14.50;99.90;;;;;;10402221;28;20022;-79
2022/11/01 13:06:43;;;;;;;19.15;11.93;;;14.50;99.90;;;;;;10403894;28;20048;-79
2022/11/01 13:11:57;;;;;;;20.83;12.70;;;14.40;99.90;;;;;;10398630;28;20466;-76
2022/11/01 13:17:18;;;;;;;21.05;12.00;;;14.40;99.90;;;;;;10400999;28;20014;-75
2022/11/01 13:22:35;;;;;;;19.40;11.27;;;14.60;99.90;;;;;;10398077;23;20066;-77
2022/11/01 13:28:09;;;;;;;15.32;10.88;;;14.80;99.90;;;;;;10355130;28;20046;-76
2022/11/01 13:33:19;;;;;;;18.92;12.13;;;14.90;99.90;;;;;;10329898;28;20038;-77
2022/11/01 13:38:39;;;;;;;18.48;11.52;;;14.90;99.90;;;;;;10356804;28;20100;-77
2022/11/01 13:43:44;;;;;;;19.35;10.90;;;14.90;99.90;;;;;;10358181;28;20112;-78
2022/11/01 13:49:03;;;;;;;19.38;11.20;;;14.90;99.90;;;;;;10395678;28;20045;-79
2022/11/01 13:54:21;;;;;;;17.92;10.82;;;14.90;99.90;;;;;;10390064;28;20779;-77
2022/11/01 13:59:32;;;;;;;17.02;10.20;;;14.90;99.90;;;;;;10396437;28;20124;-77
2022/11/01 14:04:32;;;;;;;18.38;11.57;;;14.70;99.90;;;;;;10401565;28;20065;-76
2022/11/01 14:09:45;;;;;;;21.05;12.23;;;14.50;99.90;;;;;;10389414;28;20112;-77
2022/11/01 14:14:45;;;;;;;20.70;12.25;;;14.40;99.90;;;;;;10408233;28;20061;-75
2022/11/01 14:19:54;;;;;;;24.20;12.55;;;14.10;99.90;;;;;;10401377;28;20530;-77
2022/11/01 14:25:00;;;;;;;26.92;14.07;;;13.90;99.90;;;;;;10407927;28;20076;-76
2022/11/01 14:30:11;;;;;;;23.75;13.43;;;13.70;99.90;;;;;;10409280;28;20119;-78
2022/11/01 14:35:11;;;;;;;22.67;11.73;;;13.60;99.90;;;;;;10407034;28;20034;-76
2022/11/01 14:40:38;;;;;;;20.55;11.27;;;13.40;99.90;;;;;;10405984;28;20100;-79
2022/11/01 14:45:44;;;;;;;19.70;11.18;;;13.30;99.90;;;;;;10403585;28;20052;-77
2022/11/01 14:51:07;;;;;;;24.02;13.30;;;13.20;99.90;;;;;;10383787;28;20096;-76
2022/11/01 14:56:19;;;;;;;22.92;12.45;;;13.00;99.90;;;;;;10380097;28;20037;-82
2022/11/01 15:07:24;;;;;;;25.48;15.00;;;12.80;99.90;;;;;;10404023;28;20041;-77
2022/11/01 15:12:29;;;;;;;26.08;15.50;;;12.60;99.90;;;;;;10403899;28;20060;-81
2022/11/01 15:17:33;;;;;;;25.63;15.90;;;12.50;99.90;;;;;;10404922;28;20057;-78
2022/11/01 15:22:33;;;;;;;31.15;18.77;;;12.30;99.90;;;;;;10404929;28;20045;-77
2022/11/01 15:27:39;;;;;;;33.55;20.52;;;12.20;99.90;;;;;;10405722;28;20052;-80
2022/11/01 15:32:40;;;;;;;36.50;21.30;;;12.10;99.90;;;;;;10397992;28;20055;-78
2022/11/01 15:37:47;;;;;;;41.88;24.15;;;12.00;99.90;;;;;;10405329;28;20552;-81
2022/11/01 15:42:56;;;;;;;41.70;23.08;;;11.80;99.90;;;;;;10401579;28;20033;-78
2022/11/01 15:48:00;;;;;;;35.72;19.33;;;11.70;99.90;;;;;;10404286;28;20389;-77
2022/11/01 15:53:03;;;;;;;37.45;20.70;;;11.60;99.90;;;;;;10408516;28;20041;-78
2022/11/01 15:58:07;;;;;;;38.90;21.88;;;11.50;99.90;;;;;;10407197;28;20131;-79
2022/11/01 16:03:17;;;;;;;38.35;23.00;;;11.50;99.90;;;;;;10402477;28;20021;-77
2022/11/01 16:08:27;;;;;;;44.97;24.75;;;11.40;99.90;;;;;;10402095;28;20042;-79
2022/11/01 16:13:29;;;;;;;41.85;24.80;;;11.30;99.90;;;;;;10404883;28;20101;-80
2022/11/01 16:18:42;;;;;;;38.13;22.00;;;11.20;99.90;;;;;;10398819;28;20630;-79
2022/11/01 16:24:08;;;;;;;38.72;22.70;;;11.10;99.90;;;;;;10400072;28;20049;-78
2022/11/01 16:29:13;;;;;;;45.17;26.38;;;11.10;99.90;;;;;;10404056;28;20196;-78
2022/11/01 16:34:23;;;;;;;47.17;26.35;;;11.00;99.90;;;;;;10404713;28;20037;-77
2022/11/01 16:39:29;;;;;;;57.20;29.27;;;11.00;99.90;;;;;;10404190;28;20103;-78
2022/11/01 16:44:30;;;;;;;53.60;28.25;;;10.90;99.90;;;;;;10401004;28;20056;-77
2022/11/01 16:49:31;;;;;;;49.47;28.42;;;10.90;99.90;;;;;;10403146;28;20116;-78
2022/11/01 16:54:31;;;;;;;47.78;26.10;;;10.80;99.90;;;;;;10380140;28;20040;-78
2022/11/01 16:59:40;;;;;;;45.40;25.70;;;10.80;99.90;;;;;;10402134;28;20052;-80
2022/11/01 17:04:41;;;;;;;59.28;30.00;;;10.80;99.90;;;;;;10398514;28;20053;-80
2022/11/01 17:09:42;;;;;;;89.10;43.85;;;10.70;99.90;;;;;;10403698;28;20461;-78
2022/11/01 17:14:44;;;;;;;63.15;35.60;;;10.70;99.90;;;;;;10403940;28;20029;-78
2022/11/01 17:19:50;;;;;;;55.42;32.47;;;10.70;99.90;;;;;;10398274;28;20087;-81
2022/11/01 17:24:50;;;;;;;;;;;10.60;99.90;;;;;;10401231;28;20041;-79
2022/11/01 17:29:52;;;;;;;69.85;35.95;;;10.60;99.90;;;;;;10402354;28;19909;-80
2022/11/01 17:34:52;;;;;;;54.65;31.45;;;10.60;99.90;;;;;;10396587;28;20091;-81
2022/11/01 17:39:53;;;;;;;62.95;32.72;;;10.60;99.90;;;;;;10398700;28;20123;-78
2022/11/01 17:44:53;;;;;;;62.42;34.67;;;10.60;99.90;;;;;;10401940;28;20037;-82
2022/11/01 17:49:54;;;;;;;73.93;40.97;;;10.60;99.90;;;;;;10392141;28;20121;-81
2022/11/01 17:54:54;;;;;;;74.25;40.20;;;10.50;99.90;;;;;;10403704;28;20083;-78
2022/11/01 17:59:55;;;;;;;70.28;39.08;;;10.50;99.90;;;;;;10410195;28;20489;-77
2022/11/01 18:04:57;;;;;;;86.53;46.65;;;10.50;99.90;;;;;;10406025;28;20037;-78
2022/11/01 18:09:58;;;;;;;71.60;40.90;;;10.40;99.90;;;;;;10404724;28;20018;-78
2022/11/01 18:15:18;;;;;;;76.80;44.95;;;10.40;99.90;;;;;;10409360;28;20028;-78
2022/11/01 18:20:27;;;;;;;66.82;40.20;;;10.40;99.90;;;;;;10406842;28;20032;-77
2022/11/01 18:25:41;;;;;;;69.25;40.40;;;10.40;99.90;;;;;;10383951;28;20409;-77
2022/11/01 18:31:09;;;;;;;73.68;40.83;;;10.40;99.90;;;;;;10358628;28;20634;-79
2022/11/01 18:36:15;;;;;;;73.07;40.83;;;10.30;99.90;;;;;;10367636;28;20030;-77
2022/11/01 18:41:19;;;;;;;77.57;42.97;;;10.30;99.90;;;;;;10373605;28;20037;-79
2022/11/01 18:46:29;;;;;;;89.10;50.17;;;10.20;99.90;;;;;;10369964;28;20041;-76
2022/11/01 18:51:32;;;;;;;82.18;48.45;;;10.20;99.90;;;;;;10370568;28;20038;-79
2022/11/01 18:56:34;;;;;;;79.72;47.05;;;10.20;99.90;;;;;;10380982;28;20042;-78
2022/11/01 19:01:36;;;;;;;80.40;45.80;;;10.20;99.90;;;;;;10372445;28;20171;-77
2022/11/01 19:06:37;;;;;;;79.93;44.20;;;10.20;99.90;;;;;;10367359;28;20030;-79
2022/11/01 19:11:37;;;;;;;65.65;37.78;;;10.20;99.90;;;;;;10367653;28;20030;-79
2022/11/01 19:16:38;;;;;;;70.80;40.03;;;10.20;99.90;;;;;;10370531;28;20041;-78
2022/11/01 19:21:38;;;;;;;77.30;45.05;;;10.10;99.90;;;;;;10367842;28;20466;-80
2022/11/01 19:26:40;;;;;;;93.45;52.08;;;10.10;99.90;;;;;;10369553;28;20119;-78
2022/11/01 19:31:43;;;;;;;90.25;49.85;;;10.10;99.90;;;;;;10371936;28;20528;-79
2022/11/01 19:36:45;;;;;;;98.63;53.38;;;10.10;99.90;;;;;;10369911;28;20034;-78
2022/11/01 19:41:45;;;;;;;110.03;59.42;;;10.20;99.90;;;;;;10365814;28;20091;-78
2022/11/01 19:46:47;;;;;;;111.78;63.58;;;10.20;99.90;;;;;;10373304;28;20088;-79
2022/11/01 19:51:59;;;;;;;104.25;57.58;;;10.20;99.90;;;;;;10365128;28;20033;-78
2022/11/01 19:57:04;;;;;;;96.68;53.05;;;10.20;99.90;;;;;;10367281;28;20061;-78
2022/11/01 20:02:15;;;;;;;94.90;51.33;;;10.20;99.90;;;;;;10365550;28;20022;-78
2022/11/01 20:07:18;;;;;;;104.75;54.35;;;10.30;99.90;;;;;;10361649;28;20133;-80
2022/11/01 20:12:19;;;;;;;103.30;57.05;;;10.30;99.90;;;;;;10360423;28;20920;-80
2022/11/01 20:17:20;;;;;;;104.07;60.08;;;10.30;99.90;;;;;;10359482;28;20026;-81
2022/11/01 20:22:21;;;;;;;108.40;58.63;;;10.30;99.90;;;;;;10366323;28;20049;-78
2022/11/01 20:27:22;;;;;;;95.85;55.20;;;10.40;99.90;;;;;;10405210;28;20045;-79
2022/11/01 20:32:30;;;;;;;90.63;51.13;;;10.40;99.90;;;;;;10461628;28;20406;-78
2022/11/01 20:37:30;;;;;;;96.22;49.80;;;10.40;99.90;;;;;;10446211;28;20036;-77
2022/11/01 20:42:31;;;;;;;88.53;46.08;;;10.40;99.90;;;;;;10451643;28;20021;-79
2022/11/01 20:47:32;;;;;;;76.97;44.03;;;10.40;99.90;;;;;;10453184;28;20033;-79
2022/11/01 20:52:32;;;;;;;83.55;43.63;;;10.40;99.90;;;;;;10450417;28;20030;-78
2022/11/01 20:57:33;;;;;;;65.28;37.22;;;10.40;99.90;;;;;;10446431;28;20029;-78
2022/11/01 21:02:33;;;;;;;70.53;39.33;;;10.40;99.90;;;;;;10447263;28;20040;-78
2022/11/01 21:07:34;;;;;;;63.25;37.03;;;10.50;99.90;;;;;;10440629;28;20396;-79
2022/11/01 21:12:44;;;;;;;74.65;41.45;;;10.50;99.90;;;;;;10437518;28;20112;-80
2022/11/01 21:17:45;;;;;;;71.90;40.40;;;10.50;99.90;;;;;;10441093;28;20033;-78
2022/11/01 21:22:46;;;;;;;75.05;40.95;;;10.60;99.90;;;;;;10439319;28;20144;-78
2022/11/01 21:27:49;;;;;;;74.82;40.90;;;10.70;99.90;;;;;;10448185;28;21184;-78
2022/11/01 21:32:50;;;;;;;73.32;37.78;;;10.70;99.90;;;;;;10454571;28;20311;-77
2022/11/01 21:37:53;;;;;;;69.28;37.15;;;10.80;99.90;;;;;;10447234;28;20392;-78
2022/11/01 21:42:54;;;;;;;71.40;37.03;;;10.80;99.90;;;;;;10434498;28;20447;-79
2022/11/01 21:48:16;;;;;;;71.55;36.72;;;10.90;99.90;;;;;;10411589;28;20060;-83
2022/11/01 21:53:17;;;;;;;74.10;37.80;;;11.00;99.90;;;;;;10431278;28;20091;-82
2022/11/01 21:58:19;;;;;;;67.10;36.05;;;11.00;99.90;;;;;;10422452;28;20084;-80
2022/11/01 22:03:19;;;;;;;63.38;34.47;;;11.10;99.90;;;;;;10424199;28;20032;-78
2022/11/01 22:08:20;;;;;;;61.53;32.80;;;11.10;99.90;;;;;;10431459;28;20029;-79
2022/11/01 22:13:20;;;;;;;58.38;32.65;;;11.10;99.90;;;;;;10435166;28;20032;-78
2022/11/01 22:18:21;;;;;;;65.78;34.25;;;11.10;99.90;;;;;;10430785;28;20378;-81
2022/11/01 22:23:21;;;;;;;57.63;32.55;;;11.20;99.90;;;;;;10428024;28;20100;-82
2022/11/01 22:28:22;;;;;;;78.65;40.38;;;11.20;99.90;;;;;;10421879;28;20401;-78
2022/11/01 22:33:23;;;;;;;77.28;43.35;;;11.20;99.90;;;;;;10418217;28;20152;-78
2022/11/01 22:38:26;;;;;;;79.05;42.70;;;11.30;99.90;;;;;;10408859;28;20099;-83
2022/11/01 22:43:27;;;;;;;79.18;42.33;;;11.20;99.90;;;;;;10421630;28;20068;-78
2022/11/01 22:48:30;;;;;;;72.95;39.65;;;11.20;99.90;;;;;;10416217;28;20066;-78
2022/11/01 22:53:30;;;;;;;64.32;33.92;;;11.20;99.90;;;;;;10420340;28;20029;-79
2022/11/01 22:58:37;;;;;;;63.75;32.95;;;11.20;99.90;;;;;;10418800;28;20025;-80
2022/11/01 23:03:39;;;;;;;66.20;34.92;;;11.20;99.90;;;;;;10432191;28;20037;-77
2022/11/01 23:08:39;;;;;;;66.00;35.10;;;11.10;99.90;;;;;;10432047;28;20033;-78
2022/11/01 23:19:00;;;;;;;64.50;35.17;;;11.00;99.90;;;;;;10415579;28;20392;-81
2022/11/01 23:24:01;;;;;;;66.20;36.58;;;11.00;99.90;;;;;;10414360;28;20029;-78
2022/11/01 23:29:02;;;;;;;75.82;39.97;;;11.00;99.90;;;;;;10433198;28;20118;-78
2022/11/01 23:34:02;;;;;;;74.97;41.75;;;11.00;99.90;;;;;;10414750;28;20025;-78
2022/11/01 23:39:09;;;;;;;73.60;37.35;;;11.00;99.90;;;;;;10412903;28;20517;-78
2022/11/01 23:44:29;;;;;;;73.63;37.58;;;11.00;99.90;;;;;;10421665;28;20078;-83
2022/11/01 23:49:32;;;;;;;60.08;32.58;;;11.00;99.90;;;;;;10415657;28;20044;-78
2022/11/01 23:54:40;;;;;;;59.67;31.80;;;11.00;99.90;;;;;;10419061;28;20071;-81
2022/11/01 23:59:41;;;;;;;73.85;35.47;;;11.00;99.90;;;;;;10422159;28;20021;-79
